Time;durP1;ratioP1;P1;durP2;ratioP2;P2;SDS_P1;SDS_P2;PMS_P1;PMS_P2;Temp;Humidity;BMP_temperature;BMP_pressure;BME280_temperature;BME280_humidity;BME280_pressure;Samples;Min_cycle;Max_cycle;Signal;HPM_P1;HPM_P2
2022/11/28 00:01:48;;;;;;;31.52;14.15;;;128.50;2252.80;;;;;;5014963;28;20384;-82
2022/11/28 00:04:14;;;;;;;;;;;128.50;2252.80;;;;;;5033041;28;20087;-82
2022/11/28 00:06:44;;;;;;;49.70;16.33;;;128.60;2252.80;;;;;;5015329;28;20020;-83
2022/11/28 00:09:11;;;;;;;55.75;16.90;;;128.50;2252.80;;;;;;5034652;28;20470;-82
2022/11/28 00:11:41;;;;;;;51.88;17.55;;;128.60;2252.80;;;;;;5019517;28;20034;-83
2022/11/28 00:14:07;;;;;;;38.53;16.80;;;128.60;2252.80;;;;;;5008239;28;20043;-80
2022/11/28 00:16:33;;;;;;;38.47;17.77;;;128.70;2252.80;;;;;;5022256;28;20026;-83
2022/11/28 00:18:59;;;;;;;;;;;128.80;2252.80;;;;;;5007203;28;20084;-83
2022/11/28 00:21:25;;;;;;;37.47;15.83;;;128.60;2252.80;;;;;;5018683;28;19906;-82
2022/11/28 00:23:51;;;;;;;;;;;128.70;2252.80;;;;;;5018931;28;20271;-83
2022/11/28 00:26:19;;;;;;;38.17;16.52;;;128.70;2252.80;;;;;;5027015;28;20004;-80
2022/11/28 00:28:45;;;;;;;38.13;17.63;;;128.80;2252.80;;;;;;5019025;28;20018;-82
2022/11/28 00:31:11;;;;;;;;;;;128.90;2252.80;;;;;;5008917;28;20105;-83
2022/11/28 00:33:37;;;;;;;25.67;12.38;;;128.90;2252.80;;;;;;5016833;28;20000;-83
2022/11/28 00:36:03;;;;;;;;;;;128.80;2252.80;;;;;;5007337;28;20037;-82
2022/11/28 00:38:30;;;;;;;33.17;15.35;;;128.90;2252.80;;;;;;5035797;28;19905;-82
2022/11/28 00:41:05;;;;;;;40.08;16.08;;;128.80;2252.80;;;;;;5016892;28;20029;-83
2022/11/28 00:43:32;;;;;;;36.50;17.33;;;128.70;2252.80;;;;;;5016725;28;20021;-83
2022/11/28 00:45:57;;;;;;;43.85;16.92;;;128.80;2252.80;;;;;;5014059;28;20026;-82
2022/11/28 00:48:23;;;;;;;;;;;128.70;2252.80;;;;;;5035334;28;20117;-82
2022/11/28 00:50:49;;;;;;;31.63;14.57;;;128.70;2252.80;;;;;;5017773;28;20372;-80
2022/11/28 00:53:15;;;;;;;44.47;16.27;;;128.80;2252.80;;;;;;5034733;28;20073;-80
2022/11/28 00:55:41;;;;;;;;;;;128.80;2252.80;;;;;;5026476;28;20560;-82
2022/11/28 00:58:07;;;;;;;34.22;15.70;;;128.80;2252.80;;;;;;5018784;28;19913;-81
2022/11/28 01:00:33;;;;;;;38.00;15.80;;;128.60;2252.80;;;;;;5007994;28;20033;-82
2022/11/28 01:02:59;;;;;;;;;;;128.60;2252.80;;;;;;5022195;28;20077;-83
2022/11/28 01:05:25;;;;;;;31.63;15.43;;;128.50;2252.80;;;;;;5017949;28;19913;-83
2022/11/28 01:07:51;;;;;;;33.42;14.35;;;128.70;2252.80;;;;;;5035311;28;20100;-80
2022/11/28 01:10:17;;;;;;;;;;;128.60;2252.80;;;;;;5016130;28;20109;-82
2022/11/28 01:12:43;;;;;;;31.92;14.10;;;128.70;2252.80;;;;;;5014922;28;19915;-79
2022/11/28 01:15:10;;;;;;;;;;;128.70;2252.80;;;;;;5029763;28;20021;-82
2022/11/28 01:17:35;;;;;;;;;;;128.70;2252.80;;;;;;5014708;28;20420;-82
2022/11/28 01:20:04;;;;;;;29.73;13.93;;;128.70;2252.80;;;;;;5014324;28;19906;-81
2022/11/28 01:22:29;;;;;;;35.17;15.63;;;128.70;2252.80;;;;;;5005951;28;20021;-80
2022/11/28 01:24:55;;;;;;;;;;;128.80;2252.80;;;;;;5018069;28;20029;-82
2022/11/28 01:27:21;;;;;;;33.40;14.98;;;128.80;2252.80;;;;;;5021740;28;20420;-82
2022/11/28 01:29:47;;;;;;;;;;;128.70;2252.80;;;;;;5023952;28;20022;-82
2022/11/28 01:32:13;;;;;;;41.35;17.00;;;128.80;2252.80;;;;;;5033833;28;19956;-82
2022/11/28 01:34:39;;;;;;;;;;;128.80;2252.80;;;;;;5025691;28;20069;-82
2022/11/28 01:37:05;;;;;;;52.40;19.35;;;128.80;2252.80;;;;;;5015464;28;19917;-82
2022/11/28 01:39:31;;;;;;;;;;;128.70;2252.80;;;;;;5023900;28;20026;-82
2022/11/28 01:41:56;;;;;;;43.58;18.98;;;128.70;2252.80;;;;;;5017514;28;20487;-82
2022/11/28 01:44:22;;;;;;;;;;;128.80;2252.80;;;;;;5019144;28;20033;-81
2022/11/28 01:46:47;;;;;;;46.63;20.75;;;128.80;2252.80;;;;;;5015615;28;19909;-81
2022/11/28 01:49:18;;;;;;;;;;;128.60;2252.80;;;;;;5015593;28;20092;-80
2022/11/28 01:51:48;;;;;;;67.35;19.80;;;128.60;2252.80;;;;;;5035185;28;20404;-80
2022/11/28 01:54:15;;;;;;;68.43;22.05;;;128.70;2252.80;;;;;;5016963;28;20489;-80
2022/11/28 01:56:47;;;;;;;55.65;20.25;;;128.70;2252.80;;;;;;5017119;28;20030;-81
2022/11/28 01:59:14;;;;;;;74.88;20.17;;;128.60;2252.80;;;;;;5017065;28;20028;-82
2022/11/28 02:01:42;;;;;;;52.67;20.60;;;128.60;2252.80;;;;;;5016915;28;20044;-80
2022/11/28 02:04:08;;;;;;;90.95;20.63;;;128.70;2252.80;;;;;;5017004;28;20063;-82
2022/11/28 02:06:34;;;;;;;;;;;128.60;2252.80;;;;;;5017002;28;20115;-80
2022/11/28 02:09:00;;;;;;;69.85;21.73;;;128.70;2252.80;;;;;;5025872;28;20416;-82
2022/11/28 02:11:31;;;;;;;;;;;128.70;2252.80;;;;;;5012519;28;20039;-82
2022/11/28 02:14:24;;;;;;;50.75;19.45;;;128.70;2252.80;;;;;;5025891;28;20004;-82
2022/11/28 02:17:27;;;;;;;49.20;18.90;;;128.70;2252.80;;;;;;5013894;28;20180;-80
2022/11/28 02:20:14;;;;;;;56.50;19.52;;;128.70;2252.80;;;;;;5013697;28;20033;-82
2022/11/28 02:23:06;;;;;;;44.60;16.27;;;128.80;2252.80;;;;;;5013508;28;20572;-82
2022/11/28 02:25:50;;;;;;;60.05;20.58;;;128.90;2252.80;;;;;;5016766;28;20033;-82
2022/11/28 02:28:42;;;;;;;79.10;21.98;;;128.90;2252.80;;;;;;5016256;28;20025;-82
2022/11/28 02:31:14;;;;;;;54.63;19.33;;;128.90;2252.80;;;;;;5032697;28;20112;-81
2022/11/28 02:33:50;;;;;;;60.17;21.92;;;128.80;2252.80;;;;;;5030243;28;20075;-80
2022/11/28 02:36:24;;;;;;;72.18;23.52;;;128.90;2252.80;;;;;;5006660;28;20041;-80
2022/11/28 02:39:07;;;;;;;54.08;21.05;;;128.90;2252.80;;;;;;5014120;28;20040;-80
2022/11/28 02:41:40;;;;;;;53.28;20.48;;;128.90;2252.80;;;;;;5007772;28;20471;-81
2022/11/28 02:44:18;;;;;;;61.75;23.88;;;153.70;2252.80;;;;;;5032859;28;20474;-82
2022/11/28 02:47:07;;;;;;;74.40;25.45;;;153.60;2252.80;;;;;;5004841;28;20075;-82
2022/11/28 02:49:57;;;;;;;113.60;27.90;;;128.80;2252.80;;;;;;5015928;28;20053;-82
2022/11/28 02:52:38;;;;;;;112.95;26.75;;;128.60;2252.80;;;;;;5015480;28;20049;-82
2022/11/28 02:55:05;;;;;;;92.82;24.17;;;128.50;2252.80;;;;;;5016781;28;20036;-82
2022/11/28 02:57:37;;;;;;;52.00;21.77;;;128.40;2252.80;;;;;;5016276;28;20125;-81
2022/11/28 03:00:22;;;;;;;48.70;19.60;;;128.50;2252.80;;;;;;5032392;28;20086;-82
2022/11/28 03:02:55;;;;;;;74.00;21.98;;;128.40;2252.80;;;;;;5032113;28;20101;-81
2022/11/28 03:05:48;;;;;;;122.88;25.10;;;128.70;2252.80;;;;;;5020050;28;20029;-82
2022/11/28 03:08:33;;;;;;;64.55;20.02;;;128.70;2252.80;;;;;;5011271;28;20061;-82
2022/11/28 03:11:28;;;;;;;82.55;21.42;;;128.50;2252.80;;;;;;5007548;28;20033;-82
2022/11/28 03:14:00;;;;;;;81.43;20.08;;;128.70;2252.80;;;;;;5016260;28;20044;-81
2022/11/28 03:16:42;;;;;;;55.35;18.55;;;128.60;2252.80;;;;;;5031343;28;20033;-82
2022/11/28 03:19:24;;;;;;;57.22;20.25;;;128.50;2252.80;;;;;;5004679;28;20037;-81
2022/11/28 03:22:10;;;;;;;75.07;23.88;;;128.40;2252.80;;;;;;5016448;28;20459;-82
2022/11/28 03:24:43;;;;;;;93.75;24.80;;;128.40;2252.80;;;;;;5023786;28;20041;-81
2022/11/28 03:27:29;;;;;;;92.85;23.17;;;128.60;2252.80;;;;;;5015487;28;20021;-82
2022/11/28 03:30:05;;;;;;;104.63;25.73;;;128.60;2252.80;;;;;;5015668;28;20057;-80
2022/11/28 03:32:34;;;;;;;50.75;21.02;;;128.60;2252.80;;;;;;5032227;28;20495;-82
2022/11/28 03:35:07;;;;;;;75.43;21.48;;;128.60;2252.80;;;;;;5031905;28;20029;-80
2022/11/28 03:37:38;;;;;;;103.50;21.88;;;128.60;2252.80;;;;;;5032090;28;20034;-81
2022/11/28 03:40:13;;;;;;;46.30;18.27;;;128.30;2252.80;;;;;;5032136;28;20032;-81
2022/11/28 03:42:46;;;;;;;100.03;21.85;;;128.40;2252.80;;;;;;5019276;28;20048;-80
2022/11/28 03:45:23;;;;;;;76.85;19.30;;;128.40;2252.80;;;;;;5015710;28;20017;-82
2022/11/28 03:47:58;;;;;;;42.50;17.55;;;128.30;2252.80;;;;;;5030415;28;20014;-81
2022/11/28 03:50:35;;;;;;;65.22;18.05;;;128.40;2252.80;;;;;;5005735;28;20474;-80
2022/11/28 03:53:08;;;;;;;53.40;16.73;;;128.30;2252.80;;;;;;5015463;28;20048;-80
2022/11/28 03:55:50;;;;;;;48.17;18.00;;;128.00;2252.80;;;;;;5014528;28;20044;-81
2022/11/28 03:58:45;;;;;;;88.57;19.05;;;128.20;2252.80;;;;;;5014124;28;20117;-84
2022/11/28 04:01:33;;;;;;;97.63;21.40;;;128.30;2252.80;;;;;;5027320;28;20539;-80
2022/11/28 04:04:13;;;;;;;48.67;17.98;;;128.30;2252.80;;;;;;5014907;28;20045;-87
2022/11/28 04:06:57;;;;;;;40.28;17.88;;;128.50;2252.80;;;;;;5015122;28;20024;-79
2022/11/28 04:09:30;;;;;;;83.07;18.75;;;128.50;2252.80;;;;;;5014348;28;20584;-80
2022/11/28 04:12:03;;;;;;;45.33;14.57;;;128.20;2252.80;;;;;;5029670;28;20021;-82
2022/11/28 04:14:40;;;;;;;60.30;16.25;;;128.10;2252.80;;;;;;5021121;28;20037;-83
2022/11/28 04:17:26;;;;;;;57.45;17.77;;;128.10;2252.80;;;;;;5018634;28;20068;-80
2022/11/28 04:20:20;;;;;;;56.50;15.88;;;128.30;2252.80;;;;;;4990054;28;20132;-81
2022/11/28 04:22:58;;;;;;;81.32;17.23;;;128.00;2252.80;;;;;;5016259;28;20045;-80
2022/11/28 04:25:28;;;;;;;72.95;16.67;;;103.30;2227.20;;;;;;5014819;28;20022;-80
2022/11/28 04:28:03;;;;;;;89.13;18.05;;;103.20;2227.20;;;;;;5006082;28;20032;-80
2022/11/28 04:30:29;;;;;;;64.87;16.27;;;103.00;2227.20;;;;;;5031486;28;20025;-83
2022/11/28 04:32:58;;;;;;;;;;;103.10;2227.20;;;;;;5033190;28;20030;-83
2022/11/28 04:35:35;;;;;;;57.60;16.65;;;103.00;2227.20;;;;;;5015361;28;19908;-83
2022/11/28 04:38:03;;;;;;;45.10;14.98;;;103.20;2227.20;;;;;;5014623;28;20409;-83
2022/11/28 04:40:33;;;;;;;49.17;16.52;;;103.20;2227.20;;;;;;5012503;28;20048;-83
2022/11/28 04:43:07;;;;;;;109.05;20.85;;;128.00;2252.80;;;;;;5013791;28;20521;-83
2022/11/28 04:45:38;;;;;;;88.35;18.02;;;103.20;2227.20;;;;;;5015237;28;20671;-81
2022/11/28 04:48:04;;;;;;;68.75;17.55;;;103.20;2227.20;;;;;;5031535;28;20397;-82
2022/11/28 04:50:41;;;;;;;34.97;14.73;;;103.30;2227.20;;;;;;5023605;28;20040;-83
2022/11/28 04:53:43;;;;;;;52.15;12.57;;;128.00;2252.80;;;;;;5015018;28;20045;-81
2022/11/28 04:56:18;;;;;;;62.42;13.80;;;128.00;2252.80;;;;;;4953669;29;20101;-80
2022/11/28 04:58:47;;;;;;;51.40;14.65;;;128.10;2252.80;;;;;;4955758;29;20539;-80
2022/11/28 05:01:18;;;;;;;64.32;14.57;;;128.10;2252.80;;;;;;4939696;29;20122;-83
2022/11/28 05:03:44;;;;;;;87.25;16.67;;;103.30;2227.20;;;;;;4939833;29;20027;-83
2022/11/28 05:06:10;;;;;;;;;;;128.00;2252.80;;;;;;4955545;28;20019;-82
2022/11/28 05:08:36;;;;;;;94.88;16.35;;;103.30;2227.20;;;;;;4939699;29;19954;-82
2022/11/28 05:11:01;;;;;;;;;;;103.20;2227.20;;;;;;4956133;28;20045;-82
2022/11/28 05:13:27;;;;;;;60.13;16.23;;;103.00;2227.20;;;;;;4955583;28;19907;-83
2022/11/28 05:15:52;;;;;;;;;;;102.80;2227.20;;;;;;4956024;28;20027;-83
2022/11/28 05:18:18;;;;;;;55.00;12.77;;;102.80;2227.20;;;;;;4955801;29;20005;-80
2022/11/28 05:20:44;;;;;;;;;;;102.60;2227.20;;;;;;4955849;28;20122;-79
2022/11/28 05:23:09;;;;;;;80.32;17.38;;;102.50;2227.20;;;;;;4955792;28;19907;-83
2022/11/28 05:25:36;;;;;;;;;;;102.50;2227.20;;;;;;4955477;28;20058;-83
2022/11/28 05:28:02;;;;;;;78.32;16.85;;;102.50;2227.20;;;;;;4955390;28;19906;-80
2022/11/28 05:30:28;;;;;;;69.47;16.75;;;102.50;2227.20;;;;;;4939203;29;20023;-83
2022/11/28 05:32:54;;;;;;;;;;;102.60;2227.20;;;;;;4972171;28;20132;-80
2022/11/28 05:35:20;;;;;;;47.33;12.38;;;102.50;2227.20;;;;;;5032271;28;19951;-82
2022/11/28 05:37:45;;;;;;;;;;;102.40;2227.20;;;;;;5006043;28;20041;-82
2022/11/28 05:40:11;;;;;;;49.78;15.23;;;102.50;2227.20;;;;;;5034416;28;20000;-82
2022/11/28 05:42:37;;;;;;;;;;;77.70;2227.20;;;;;;5014829;28;20032;-80
2022/11/28 05:45:03;;;;;;;107.32;16.67;;;102.40;2227.20;;;;;;5005987;28;20353;-80
2022/11/28 05:47:31;;;;;;;66.57;16.20;;;102.50;2227.20;;;;;;5017238;28;20025;-83
2022/11/28 05:49:56;;;;;;;58.13;16.23;;;102.60;2227.20;;;;;;5031427;28;20029;-80
2022/11/28 05:52:22;;;;;;;;;;;102.70;2227.20;;;;;;5034514;28;20580;-83
2022/11/28 05:54:48;;;;;;;55.67;16.75;;;102.80;2227.20;;;;;;5016558;28;19905;-79
2022/11/28 05:57:13;;;;;;;;;;;103.00;2227.20;;;;;;5017775;28;20128;-81
2022/11/28 05:59:39;;;;;;;49.50;14.90;;;103.00;2227.20;;;;;;5033151;28;20047;-83
2022/11/28 06:02:04;;;;;;;;;;;103.00;2227.20;;;;;;5016847;28;20096;-80
2022/11/28 06:04:30;;;;;;;49.53;14.75;;;103.00;2227.20;;;;;;5022293;28;20071;-80
2022/11/28 06:06:56;;;;;;;;;;;103.00;2227.20;;;;;;5003445;28;20029;-83
2022/11/28 06:09:22;;;;;;;63.90;17.90;;;102.90;2227.20;;;;;;5017190;28;19928;-83
2022/11/28 06:11:47;;;;;;;;;;;103.00;2227.20;;;;;;5034939;28;20018;-83
2022/11/28 06:14:13;;;;;;;78.07;18.98;;;102.90;2227.20;;;;;;5016968;28;19959;-81
2022/11/28 06:16:40;;;;;;;;;;;102.80;2227.20;;;;;;5015527;28;20052;-82
2022/11/28 06:19:05;;;;;;;49.38;15.80;;;102.70;2227.20;;;;;;5023049;28;19963;-83
2022/11/28 06:21:31;;;;;;;;;;;102.80;2227.20;;;;;;5017350;28;20030;-82
2022/11/28 06:23:58;;;;;;;83.93;17.67;;;102.90;2227.20;;;;;;5003892;28;19905;-80
2022/11/28 06:26:26;;;;;;;85.45;19.27;;;102.80;2227.20;;;;;;5033469;28;20022;-84
2022/11/28 06:28:54;;;;;;;94.22;20.92;;;102.80;2227.20;;;;;;5015462;28;20101;-83
2022/11/28 06:31:26;;;;;;;50.33;16.00;;;102.70;2227.20;;;;;;5005272;28;20111;-83
2022/11/28 06:33:52;;;;;;;78.50;19.10;;;102.70;2227.20;;;;;;5003944;28;20137;-83
2022/11/28 06:36:18;;;;;;;;;;;102.70;2227.20;;;;;;5007157;28;20120;-83
2022/11/28 06:38:44;;;;;;;67.05;20.25;;;102.70;2227.20;;;;;;5032255;28;19904;-82
2022/11/28 06:41:11;;;;;;;;;;;102.70;2227.20;;;;;;5005039;28;20037;-82
2022/11/28 06:43:38;;;;;;;72.35;16.80;;;102.80;2227.20;;;;;;5016457;28;19948;-80
2022/11/28 06:46:04;;;;;;;43.70;16.17;;;102.70;2227.20;;;;;;5034090;28;20104;-83
2022/11/28 06:48:30;;;;;;;71.32;16.77;;;102.80;2227.20;;;;;;5016234;28;20084;-84
2022/11/28 06:51:02;;;;;;;;;;;102.70;2227.20;;;;;;5033654;28;20073;-84
2022/11/28 06:53:28;;;;;;;38.90;14.63;;;102.60;2227.20;;;;;;5030806;28;20011;-84
2022/11/28 06:55:54;;;;;;;;;;;102.50;2227.20;;;;;;5011429;28;20122;-84
2022/11/28 06:58:19;;;;;;;49.45;14.27;;;102.50;2227.20;;;;;;5012992;28;20276;-83
2022/11/28 07:00:45;;;;;;;;;;;102.60;2227.20;;;;;;5020127;28;20104;-82
2022/11/28 07:03:12;;;;;;;40.65;14.38;;;102.70;2227.20;;;;;;5016019;28;19919;-78
2022/11/28 07:05:38;;;;;;;48.03;15.82;;;102.70;2227.20;;;;;;5019987;28;20367;-80
2022/11/28 07:08:04;;;;;;;34.85;14.00;;;102.80;2227.20;;;;;;5025639;28;20037;-81
2022/11/28 07:10:30;;;;;;;;;;;102.80;2227.20;;;;;;5016208;28;20060;-81
2022/11/28 07:12:58;;;;;;;57.28;15.30;;;102.80;2227.20;;;;;;5024895;28;19952;-80
2022/11/28 07:15:24;;;;;;;57.00;17.05;;;102.70;2227.20;;;;;;5009966;28;20061;-80
2022/11/28 07:17:50;;;;;;;61.28;16.23;;;102.70;2227.20;;;;;;5014848;28;20052;-83
2022/11/28 07:20:16;;;;;;;;;;;102.80;2227.20;;;;;;5017583;28;20029;-79
2022/11/28 07:22:42;;;;;;;38.35;14.88;;;102.80;2227.20;;;;;;5030118;28;19905;-81
2022/11/28 07:25:09;;;;;;;44.22;14.93;;;102.80;2227.20;;;;;;5016282;28;20026;-81
2022/11/28 07:27:34;;;;;;;39.40;15.68;;;102.90;2227.20;;;;;;5030022;28;20025;-80
2022/11/28 07:30:00;;;;;;;;;;;103.00;2227.20;;;;;;5016056;28;20026;-82
2022/11/28 07:32:26;;;;;;;43.10;13.55;;;103.00;2227.20;;;;;;5019000;28;19920;-84
2022/11/28 07:34:51;;;;;;;;;;;102.90;2227.20;;;;;;5015996;28;20474;-85
2022/11/28 07:37:17;;;;;;;44.05;15.15;;;103.00;2227.20;;;;;;5022175;28;20004;-79
2022/11/28 07:39:43;;;;;;;;;;;103.00;2227.20;;;;;;5019085;28;20018;-81
2022/11/28 07:42:10;;;;;;;45.25;16.45;;;103.00;2227.20;;;;;;5033090;28;19967;-87
2022/11/28 07:44:35;;;;;;;52.33;16.23;;;103.10;2227.20;;;;;;5015606;28;20029;-86
2022/11/28 07:47:01;;;;;;;;;;;103.10;2227.20;;;;;;5025225;28;20033;-79
2022/11/28 07:49:27;;;;;;;36.25;14.35;;;103.20;2227.20;;;;;;5013341;28;19940;-82
2022/11/28 07:51:53;;;;;;;;;;;103.30;2227.20;;;;;;5002975;28;20037;-88
2022/11/28 07:54:18;;;;;;;31.98;14.73;;;128.10;2252.80;;;;;;5000831;28;19967;-87
2022/11/28 07:56:44;;;;;;;;;;;103.20;2227.20;;;;;;5024629;28;20040;-83
2022/11/28 07:59:10;;;;;;;47.80;15.77;;;103.10;2227.20;;;;;;5012498;28;19912;-85
2022/11/28 08:01:36;;;;;;;;;;;103.00;2227.20;;;;;;5004593;28;20439;-82
2022/11/28 08:04:04;;;;;;;37.33;13.75;;;103.20;2227.20;;;;;;5011978;28;20425;-81
2022/11/28 08:06:30;;;;;;;24.73;13.32;;;103.20;2227.20;;;;;;5025561;28;20030;-83
2022/11/28 08:09:00;;;;;;;36.13;15.48;;;103.20;2227.20;;;;;;5014421;28;20180;-86
2022/11/28 08:11:28;;;;;;;29.77;14.60;;;103.20;2227.20;;;;;;5018280;28;20033;-82
2022/11/28 08:13:55;;;;;;;31.23;15.35;;;128.00;2252.80;;;;;;5031665;28;20026;-83
2022/11/28 08:16:22;;;;;;;24.77;13.65;;;128.00;2252.80;;;;;;5010272;28;20037;-84
2022/11/28 08:18:49;;;;;;;25.17;13.82;;;128.10;2252.80;;;;;;5005460;28;20026;-82
2022/11/28 08:21:24;;;;;;;27.38;13.32;;;128.10;2252.80;;;;;;5026115;28;20113;-81
2022/11/28 08:23:52;;;;;;;26.75;13.98;;;128.20;2252.80;;;;;;5005560;28;20088;-84
2022/11/28 08:26:23;;;;;;;32.58;15.20;;;128.30;2252.80;;;;;;5011645;28;20034;-81
2022/11/28 08:28:50;;;;;;;26.05;14.77;;;128.50;2252.80;;;;;;5012877;28;20022;-84
2022/11/28 08:31:17;;;;;;;25.60;13.80;;;128.80;2252.80;;;;;;5018762;28;20026;-81
2022/11/28 08:33:45;;;;;;;29.50;15.05;;;128.60;2252.80;;;;;;5018861;28;20113;-81
2022/11/28 08:36:13;;;;;;;23.92;14.40;;;128.80;2252.80;;;;;;5018672;28;20079;-81
2022/11/28 08:38:39;;;;;;;23.33;12.18;;;128.90;2252.80;;;;;;5018904;28;20030;-82
2022/11/28 08:41:06;;;;;;;;;;;128.80;2252.80;;;;;;5035922;28;20017;-82
2022/11/28 08:43:33;;;;;;;25.58;9.95;;;128.90;2252.80;;;;;;5018715;28;20242;-80
2022/11/28 08:46:00;;;;;;;26.25;13.65;;;153.60;2252.80;;;;;;5018853;28;20040;-80
2022/11/28 08:48:26;;;;;;;38.92;21.67;;;153.60;2252.80;;;;;;5018431;28;20026;-80
2022/11/28 08:50:51;;;;;;;;;;;153.90;2252.80;;;;;;5018450;28;20135;-80
2022/11/28 08:53:17;;;;;;;27.60;16.80;;;154.10;2252.80;;;;;;5020277;28;19917;-80
2022/11/28 08:55:43;;;;;;;;;;;154.20;2252.80;;;;;;5027341;28;20144;-80
2022/11/28 08:58:13;;;;;;;22.20;12.02;;;154.20;2252.80;;;;;;5018325;28;19999;-80
2022/11/28 09:00:39;;;;;;;20.42;12.18;;;154.20;2252.80;;;;;;5018549;28;20021;-80
2022/11/28 09:03:05;;;;;;;28.60;14.65;;;154.30;2252.80;;;;;;5016227;28;20041;-80
2022/11/28 09:05:31;;;;;;;;;;;154.50;2252.80;;;;;;5006592;28;20484;-80
2022/11/28 09:07:57;;;;;;;23.30;12.35;;;179.20;2252.80;;;;;;5021214;28;19905;-80
2022/11/28 09:10:23;;;;;;;;;;;179.30;2252.80;;;;;;5023747;28;20052;-79
2022/11/28 09:12:50;;;;;;;21.55;13.07;;;179.50;2252.80;;;;;;5030987;28;20008;-79
2022/11/28 09:15:17;;;;;;;19.95;11.25;;;179.50;2252.80;;;;;;5017332;28;20026;-79
2022/11/28 09:17:42;;;;;;;19.35;12.05;;;179.50;2252.80;;;;;;5016993;28;20034;-78
2022/11/28 09:20:08;;;;;;;;;;;179.80;2252.80;;;;;;5029102;28;20017;-78
2022/11/28 09:22:34;;;;;;;40.97;19.92;;;180.00;2252.80;;;;;;5001314;28;20377;-78
2022/11/28 09:25:00;;;;;;;;;;;204.80;2252.80;;;;;;5031080;28;20025;-78
2022/11/28 09:27:26;;;;;;;20.23;11.50;;;204.90;2252.80;;;;;;5013451;28;19912;-79
2022/11/28 09:29:51;;;;;;;;;;;205.20;2252.80;;;;;;5025138;28;20084;-79
2022/11/28 09:32:17;;;;;;;16.27;9.20;;;205.30;2252.80;;;;;;5027807;28;19913;-79
2022/11/28 09:34:42;;;;;;;;;;;205.00;2252.80;;;;;;5009583;28;20029;-79
2022/11/28 09:37:08;;;;;;;22.05;10.25;;;204.80;2252.80;;;;;;5015928;28;19917;-78
2022/11/28 09:39:34;;;;;;;;;;;180.10;2252.80;;;;;;5016865;28;20473;-78
2022/11/28 09:42:16;;;;;;;25.30;11.95;;;179.80;2252.80;;;;;;5029338;28;19909;-78
2022/11/28 09:44:57;;;;;;;18.08;10.23;;;179.90;2252.80;;;;;;5010665;28;20036;-80
2022/11/28 09:47:27;;;;;;;20.50;11.48;;;180.10;2252.80;;;;;;5024287;28;20026;-80
2022/11/28 09:49:58;;;;;;;16.67;10.65;;;204.90;2252.80;;;;;;5017072;28;20067;-79
2022/11/28 09:52:27;;;;;;;17.42;10.50;;;204.80;2252.80;;;;;;5016505;28;20091;-80
2022/11/28 09:55:23;;;;;;;26.60;14.93;;;180.10;2252.80;;;;;;5024924;28;20033;-80
2022/11/28 09:57:53;;;;;;;19.33;12.05;;;180.10;2252.80;;;;;;5018811;28;20144;-80
2022/11/28 10:00:22;;;;;;;22.45;12.07;;;180.00;2252.80;;;;;;5033672;28;20089;-80
2022/11/28 10:02:50;;;;;;;17.60;10.52;;;179.90;2252.80;;;;;;5034297;28;20025;-80
2022/11/28 10:05:43;;;;;;;20.65;11.38;;;180.00;2252.80;;;;;;5034520;28;20055;-80
2022/11/28 10:08:28;;;;;;;25.38;11.60;;;179.90;2252.80;;;;;;5033676;28;20025;-80
2022/11/28 10:11:34;;;;;;;19.15;10.95;;;180.00;2252.80;;;;;;5013536;28;20022;-80
2022/11/28 10:14:41;;;;;;;17.98;11.20;;;204.90;2252.80;;;;;;5002193;28;20173;-80
2022/11/28 10:17:22;;;;;;;22.67;10.85;;;204.90;2252.80;;;;;;5017245;28;20026;-80
2022/11/28 10:20:02;;;;;;;18.40;12.35;;;204.90;2252.80;;;;;;5024256;28;20116;-80
2022/11/28 10:23:08;;;;;;;23.08;13.02;;;204.90;2252.80;;;;;;5024335;28;20041;-80
2022/11/28 10:25:45;;;;;;;24.77;14.02;;;205.00;2252.80;;;;;;4954444;28;20066;-81
2022/11/28 10:28:36;;;;;;;30.40;15.77;;;205.10;2252.80;;;;;;4953615;29;20035;-80
2022/11/28 10:31:25;;;;;;;32.50;16.42;;;205.20;2252.80;;;;;;4938050;29;20158;-79
2022/11/28 10:33:56;;;;;;;23.05;12.60;;;205.20;2252.80;;;;;;4953761;29;20046;-79
2022/11/28 10:36:38;;;;;;;40.75;17.77;;;205.10;2252.80;;;;;;4954027;29;20058;-80
2022/11/28 10:39:11;;;;;;;27.77;15.68;;;204.90;2252.80;;;;;;4953302;29;20031;-80
2022/11/28 10:42:10;;;;;;;32.25;17.75;;;205.00;2252.80;;;;;;4952606;28;20031;-80
2022/11/28 10:44:43;;;;;;;48.67;23.10;;;204.90;2252.80;;;;;;4953532;28;20110;-79
2022/11/28 10:47:36;;;;;;;24.65;13.70;;;204.90;2252.80;;;;;;4951436;29;20042;-78
2022/11/28 10:50:06;;;;;;;21.40;9.40;;;204.80;2252.80;;;;;;4952862;28;20023;-81
2022/11/28 10:52:53;;;;;;;20.48;10.38;;;180.10;2252.80;;;;;;4952692;28;20060;-80
2022/11/28 10:55:28;;;;;;;29.80;12.65;;;180.10;2252.80;;;;;;4936512;29;20056;-79
2022/11/28 10:58:05;;;;;;;22.92;10.80;;;204.80;2252.80;;;;;;4936652;28;20035;-79
2022/11/28 11:00:33;;;;;;;19.27;9.18;;;204.80;2252.80;;;;;;5001695;28;20053;-80
2022/11/28 11:03:01;;;;;;;22.33;10.00;;;180.10;2252.80;;;;;;5006763;28;20072;-81
2022/11/28 11:05:34;;;;;;;12.05;7.28;;;180.00;2252.80;;;;;;5013120;28;20034;-80
2022/11/28 11:08:20;;;;;;;29.38;8.75;;;180.00;2252.80;;;;;;5022078;28;20022;-80
2022/11/28 11:11:02;;;;;;;15.10;8.80;;;180.00;2252.80;;;;;;5011639;28;20040;-81
2022/11/28 11:13:33;;;;;;;16.15;8.52;;;180.10;2252.80;;;;;;5016837;28;20489;-80
2022/11/28 11:16:05;;;;;;;14.77;7.60;;;180.00;2252.80;;;;;;5019290;28;20025;-79
2022/11/28 11:18:49;;;;;;;11.32;6.75;;;180.00;2252.80;;;;;;5009914;28;20131;-80
2022/11/28 11:21:15;;;;;;;12.82;8.30;;;180.00;2252.80;;;;;;5011631;28;20604;-81
2022/11/28 11:23:42;;;;;;;20.70;8.93;;;180.10;2252.80;;;;;;5012368;28;20021;-84
2022/11/28 11:26:23;;;;;;;14.60;8.18;;;180.10;2252.80;;;;;;5011185;28;20381;-81
2022/11/28 11:28:51;;;;;;;17.83;10.23;;;204.80;2252.80;;;;;;5011849;28;20486;-81
2022/11/28 11:31:29;;;;;;;14.70;9.60;;;204.90;2252.80;;;;;;5014174;28;20018;-83
2022/11/28 11:34:14;;;;;;;17.30;8.93;;;204.90;2252.80;;;;;;5030125;28;20060;-81
2022/11/28 11:36:40;;;;;;;12.10;7.50;;;204.90;2252.80;;;;;;5030327;28;20049;-81
2022/11/28 11:39:14;;;;;;;;;;;204.90;2252.80;;;;;;5005136;28;20065;-80
2022/11/28 11:41:40;;;;;;;19.58;10.32;;;204.90;2252.80;;;;;;5023201;28;19909;-81
2022/11/28 11:44:24;;;;;;;13.77;8.15;;;204.90;2252.80;;;;;;5004810;28;20018;-80
2022/11/28 11:46:53;;;;;;;16.00;8.43;;;204.90;2252.80;;;;;;5013525;28;20026;-80
2022/11/28 11:49:36;;;;;;;16.40;8.63;;;205.00;2252.80;;;;;;5009480;28;20072;-80
2022/11/28 11:52:24;;;;;;;17.33;8.25;;;205.00;2252.80;;;;;;5009152;28;20025;-80
2022/11/28 11:54:55;;;;;;;12.50;6.55;;;204.90;2252.80;;;;;;5030211;28;20123;-80
2022/11/28 11:57:27;;;;;;;14.63;8.73;;;204.90;2252.80;;;;;;5023020;28;20069;-80
2022/11/28 11:59:57;;;;;;;13.00;7.28;;;204.90;2252.80;;;;;;5008735;28;20036;-80
2022/11/28 12:03:11;;;;;;;22.27;8.80;;;204.90;2252.80;;;;;;5010919;28;20033;-79
2022/11/28 12:05:48;;;;;;;25.55;10.30;;;205.00;2252.80;;;;;;4967320;28;20506;-80
2022/11/28 12:08:38;;;;;;;14.93;8.15;;;205.00;2252.80;;;;;;4970242;28;20034;-80
2022/11/28 12:11:32;;;;;;;18.40;9.00;;;204.90;2252.80;;;;;;4979332;28;20027;-80
2022/11/28 12:14:07;;;;;;;14.30;8.57;;;204.90;2252.80;;;;;;4995137;28;20438;-82
2022/11/28 12:16:42;;;;;;;25.52;10.82;;;204.90;2252.80;;;;;;4995546;28;20038;-79
2022/11/28 12:19:19;;;;;;;18.77;8.88;;;204.90;2252.80;;;;;;4978855;28;20037;-80
2022/11/28 12:22:05;;;;;;;20.52;8.90;;;204.90;2252.80;;;;;;4995269;28;20058;-81
2022/11/28 12:25:06;;;;;;;22.20;8.75;;;204.90;2252.80;;;;;;4967689;28;20056;-81
2022/11/28 12:27:43;;;;;;;19.58;9.43;;;204.80;2252.80;;;;;;4989215;28;20139;-80
2022/11/28 12:31:07;;;;;;;17.63;8.80;;;204.90;2252.80;;;;;;4994570;28;20022;-80
2022/11/28 12:33:45;;;;;;;24.25;11.40;;;204.90;2252.80;;;;;;4917582;29;20028;-81
2022/11/28 12:36:19;;;;;;;20.73;9.07;;;205.00;2252.80;;;;;;4917598;29;20064;-83
2022/11/28 12:39:16;;;;;;;14.82;8.00;;;205.00;2252.80;;;;;;4901702;29;20035;-81
2022/11/28 12:41:42;;;;;;;22.00;9.27;;;205.10;2252.80;;;;;;4927658;29;20032;-80
2022/11/28 12:44:26;;;;;;;;;;;205.10;2252.80;;;;;;4934644;29;20047;-81